Colelache, Argentina
Current Conditions -  °F | °C
As of 4:00 PM on Tuesday 21 Oct 2014 (Local Time) from SAVE Reporting Station
Scattered Clouds Scattered Clouds  
Wind Chill: 64°   Ceiling: Unl
Heat Index: 64°   Visibility: 6mi
Dew Point: 39°   Wind: 23mph
Humidity: 40%   Direction: 250°WSW
Pressure: 29.74"   Gusts: 35mph
Location:  42.46°S, 66.7°W
Report Text: SAVE 211900Z 25020G30KT 9999 SCT035 18/04 Q1007
Loading
Personal Weather Stations






























Interactive Weather Map
Tropical Storm Tracking
New forecast layout! Learn more

10-Day Weather Forecast

Advertisements
Track Severe Weather on mobile